createdAt,value
2018-07-20T00:00:22.014Z,16.20
2018-07-20T00:02:50.468Z,16.20
2018-07-20T00:05:18.999Z,16.10
2018-07-20T00:07:47.458Z,16.10
2018-07-20T00:10:16.028Z,16.00
2018-07-20T00:12:44.490Z,16.00
2018-07-20T00:15:13.167Z,16.00
2018-07-20T00:17:41.757Z,16.00
2018-07-20T00:20:10.270Z,15.90
2018-07-20T00:22:38.779Z,16.00
2018-07-20T00:25:07.359Z,15.90
2018-07-20T00:27:35.879Z,15.90
2018-07-20T00:30:04.817Z,15.90
2018-07-20T00:32:33.333Z,15.90
2018-07-20T00:35:01.779Z,15.90
2018-07-20T00:37:30.270Z,15.90
2018-07-20T00:39:58.835Z,16.00
2018-07-20T00:42:27.341Z,16.00
2018-07-20T00:44:55.798Z,16.00
2018-07-20T00:47:24.328Z,16.10
2018-07-20T00:49:52.800Z,16.10
2018-07-20T00:52:21.292Z,16.10
2018-07-20T00:54:49.795Z,16.10
2018-07-20T00:59:46.457Z,16.00
2018-07-20T01:02:14.944Z,16.00
2018-07-20T01:04:43.413Z,16.00
2018-07-20T01:07:11.941Z,15.90
2018-07-20T01:09:40.450Z,15.90
2018-07-20T01:12:09.051Z,15.90
2018-07-20T01:17:05.729Z,15.80
2018-07-20T01:19:34.244Z,15.80
2018-07-20T01:22:02.777Z,15.70
2018-07-20T01:24:31.384Z,15.70
2018-07-20T01:26:59.874Z,15.70
2018-07-20T01:29:28.380Z,15.70
2018-07-20T01:31:56.851Z,15.70
2018-07-20T01:34:25.390Z,15.60
2018-07-20T01:39:22.132Z,15.50
2018-07-20T01:41:50.620Z,15.40
2018-07-20T01:44:19.122Z,15.40
2018-07-20T01:46:47.669Z,15.30
2018-07-20T01:49:16.142Z,15.30
2018-07-20T01:51:44.693Z,15.30
2018-07-20T01:54:13.198Z,15.20
2018-07-20T01:56:41.723Z,15.20
2018-07-20T01:59:10.234Z,15.20
2018-07-20T02:01:38.769Z,15.20
2018-07-20T02:04:07.707Z,15.30
2018-07-20T02:06:36.189Z,15.30
2018-07-20T02:09:07.944Z,15.30
2018-07-20T02:14:04.734Z,15.20
2018-07-20T02:16:33.264Z,15.20
2018-07-20T02:19:01.743Z,15.20
2018-07-20T02:21:30.465Z,15.20
2018-07-20T02:26:27.265Z,15.20
2018-07-20T02:28:55.864Z,15.20
2018-07-20T02:31:24.836Z,15.20
2018-07-20T02:33:53.401Z,15.30
2018-07-20T02:36:21.939Z,15.30
2018-07-20T02:38:50.713Z,15.30
2018-07-20T02:41:19.263Z,15.40
2018-07-20T02:43:47.763Z,15.40
2018-07-20T02:46:16.301Z,15.50
2018-07-20T02:48:44.839Z,15.50
2018-07-20T02:51:13.336Z,15.40
2018-07-20T02:53:41.856Z,15.40
2018-07-20T02:56:10.363Z,15.40
2018-07-20T02:58:38.828Z,15.30
2018-07-20T03:01:07.448Z,15.30
2018-07-20T03:03:36.029Z,15.30
2018-07-20T03:06:04.507Z,15.20
2018-07-20T03:08:33.036Z,15.20
2018-07-20T03:13:29.837Z,15.10
2018-07-20T03:15:58.312Z,15.10
2018-07-20T03:18:26.841Z,15.10
2018-07-20T03:20:55.367Z,15.10
2018-07-20T03:23:23.852Z,15.00
2018-07-20T03:25:52.397Z,15.00
2018-07-20T03:28:20.859Z,15.00
2018-07-20T03:30:49.417Z,15.00
2018-07-20T03:33:17.871Z,14.90
2018-07-20T03:35:46.398Z,14.90
2018-07-20T03:38:14.965Z,14.90
2018-07-20T03:40:43.552Z,15.00
2018-07-20T03:43:12.051Z,15.00
2018-07-20T03:45:40.615Z,15.00
2018-07-20T03:48:09.145Z,15.00
2018-07-20T03:50:37.693Z,15.00
2018-07-20T03:53:06.306Z,15.00
2018-07-20T03:55:34.822Z,15.00
2018-07-20T03:58:03.329Z,15.00
2018-07-20T04:00:32.065Z,15.00
2018-07-20T04:03:00.581Z,15.00
2018-07-20T04:05:29.074Z,14.90
2018-07-20T04:07:57.580Z,14.90
2018-07-20T04:10:26.243Z,14.90
2018-07-20T04:12:54.903Z,14.90
2018-07-20T04:15:23.415Z,14.80
2018-07-20T04:17:51.972Z,14.80
2018-07-20T04:22:48.652Z,14.90
2018-07-20T04:25:17.238Z,14.90
2018-07-20T04:27:45.707Z,14.80
2018-07-20T04:30:15.141Z,14.90
2018-07-20T04:32:43.704Z,14.80
2018-07-20T04:35:12.320Z,14.80
2018-07-20T04:37:40.875Z,14.90
2018-07-20T04:40:09.593Z,14.90
2018-07-20T04:42:38.092Z,14.90
2018-07-20T04:45:06.823Z,14.90
2018-07-20T04:47:35.348Z,14.80
2018-07-20T04:50:04.631Z,14.90
2018-07-20T04:52:33.119Z,14.90
2018-07-20T04:55:01.605Z,14.90
2018-07-20T04:57:30.222Z,14.90
2018-07-20T04:59:58.925Z,15.00
2018-07-20T05:02:27.516Z,15.00
2018-07-20T05:04:56.073Z,15.00
2018-07-20T05:07:24.604Z,15.10
2018-07-20T05:09:53.102Z,15.10
2018-07-20T05:12:21.741Z,15.10
2018-07-20T05:14:50.271Z,15.20
2018-07-20T05:17:18.764Z,15.30
2018-07-20T05:19:47.280Z,15.30
2018-07-20T05:29:40.436Z,15.50
2018-07-20T05:32:08.905Z,15.60
2018-07-20T05:34:37.522Z,15.60
2018-07-20T05:37:06.040Z,15.70
2018-07-20T05:39:34.556Z,15.70
2018-07-20T05:42:03.101Z,15.70
2018-07-20T05:44:31.577Z,15.80
2018-07-20T05:47:00.095Z,15.80
2018-07-20T05:49:28.752Z,15.80
2018-07-20T05:51:57.253Z,15.90
2018-07-20T05:54:25.744Z,15.90
2018-07-20T05:56:54.265Z,16.00
2018-07-20T05:59:23.003Z,16.00
2018-07-20T06:01:51.496Z,16.10
2018-07-20T06:04:19.959Z,16.20
2018-07-20T06:09:16.704Z,16.40
2018-07-20T06:11:45.195Z,16.50
2018-07-20T06:14:13.751Z,16.60
2018-07-20T06:16:42.199Z,16.70
2018-07-20T06:19:10.726Z,16.70
2018-07-20T06:21:39.260Z,16.80
2018-07-20T06:24:07.785Z,16.80
2018-07-20T06:26:36.332Z,16.90
2018-07-20T06:29:04.856Z,17.00
2018-07-20T06:31:33.364Z,17.10
2018-07-20T06:36:30.065Z,17.30
2018-07-20T06:38:58.568Z,17.40
2018-07-20T06:41:27.108Z,17.50
2018-07-20T06:43:56.193Z,17.60
2018-07-20T06:46:24.652Z,17.70
2018-07-20T06:48:53.167Z,17.80
2018-07-20T06:51:21.660Z,17.80
2018-07-20T06:53:50.352Z,17.90
2018-07-20T06:56:19.001Z,17.90
2018-07-20T07:01:15.739Z,18.10
2018-07-20T07:03:44.193Z,18.20
2018-07-20T07:06:12.725Z,18.30
2018-07-20T07:08:41.191Z,18.50
2018-07-20T07:11:09.926Z,18.60
2018-07-20T07:13:38.442Z,18.70
2018-07-20T07:16:07.358Z,18.80
2018-07-20T07:18:35.930Z,18.90
2018-07-20T07:21:04.462Z,19.00
2018-07-20T07:23:33.352Z,19.10
2018-07-20T07:26:02.029Z,19.20
2018-07-20T07:30:58.755Z,19.30
2018-07-20T07:33:27.636Z,19.40
2018-07-20T07:35:56.180Z,19.60
2018-07-20T07:38:25.033Z,19.70
2018-07-20T07:40:53.509Z,19.80
2018-07-20T07:43:22.017Z,19.80
2018-07-20T07:45:50.487Z,19.90
2018-07-20T07:48:19.019Z,19.90
2018-07-20T07:50:47.580Z,19.90
2018-07-20T07:53:16.064Z,20.00
2018-07-20T07:55:44.536Z,20.00
2018-07-20T07:58:13.084Z,20.00
2018-07-20T08:00:41.605Z,20.00
2018-07-20T08:03:10.187Z,20.10
2018-07-20T08:05:38.721Z,20.20
2018-07-20T08:08:07.210Z,20.40
2018-07-20T08:10:35.701Z,20.60
2018-07-20T08:13:04.216Z,20.70
2018-07-20T08:15:32.692Z,20.90
2018-07-20T08:18:01.197Z,21.10
2018-07-20T08:20:29.696Z,21.20
2018-07-20T08:22:58.284Z,21.40
2018-07-20T08:25:26.714Z,21.50
2018-07-20T08:27:55.266Z,21.60
2018-07-20T08:30:23.784Z,21.70
2018-07-20T08:32:52.304Z,21.90
2018-07-20T08:35:20.858Z,22.00
2018-07-20T08:37:49.411Z,22.10
2018-07-20T08:40:17.931Z,22.30
2018-07-20T08:42:46.420Z,22.40
2018-07-20T08:45:14.967Z,22.50
2018-07-20T08:47:43.434Z,22.60
2018-07-20T08:50:12.236Z,22.50
2018-07-20T08:52:40.777Z,22.50
2018-07-20T08:55:09.244Z,22.60
2018-07-20T08:57:37.840Z,22.70
2018-07-20T09:00:06.924Z,22.70
2018-07-20T09:02:35.367Z,22.60
2018-07-20T09:05:04.448Z,22.50
2018-07-20T09:07:32.969Z,22.60
2018-07-20T09:10:07.196Z,22.80
2018-07-20T09:12:35.857Z,23.00
2018-07-20T09:17:32.800Z,23.30
2018-07-20T09:20:01.311Z,23.20
2018-07-20T09:22:29.884Z,23.10
2018-07-20T09:24:58.465Z,23.10
2018-07-20T09:27:26.959Z,23.20
2018-07-20T09:29:55.579Z,23.30
2018-07-20T09:32:24.123Z,23.40
2018-07-20T09:37:20.912Z,23.70
2018-07-20T09:39:49.464Z,23.80
2018-07-20T09:42:18.000Z,23.90
2018-07-20T09:44:46.502Z,23.90
2018-07-20T09:47:15.023Z,23.90
2018-07-20T09:52:19.093Z,24.10
2018-07-20T09:54:50.484Z,24.10
2018-07-20T09:57:24.050Z,24.20
2018-07-20T09:59:59.080Z,24.20
2018-07-20T10:02:33.305Z,24.20
2018-07-20T10:05:06.533Z,24.30
2018-07-20T10:07:41.577Z,24.40
2018-07-20T10:10:15.834Z,24.50
2018-07-20T10:12:48.805Z,24.50
2018-07-20T10:15:21.102Z,24.60
2018-07-20T10:17:52.997Z,24.90
2018-07-20T10:20:25.429Z,24.90
2018-07-20T10:22:59.561Z,24.80
2018-07-20T10:25:33.696Z,25.00
2018-07-20T10:28:05.431Z,25.10
2018-07-20T10:30:37.403Z,25.00
2018-07-20T10:33:11.418Z,25.00
2018-07-20T10:35:47.259Z,25.10
2018-07-20T10:40:51.207Z,25.40
2018-07-20T10:43:23.421Z,25.50
2018-07-20T10:45:55.370Z,25.50
2018-07-20T10:48:27.978Z,25.60
2018-07-20T10:51:01.589Z,25.70
2018-07-20T10:53:35.805Z,25.80
2018-07-20T10:56:09.185Z,25.90
2018-07-20T10:58:44.589Z,26.00
2018-07-20T11:01:16.813Z,26.20
2018-07-20T11:03:52.032Z,26.30
2018-07-20T11:06:23.116Z,26.20
2018-07-20T11:11:25.979Z,26.00
2018-07-20T11:13:59.078Z,26.00
2018-07-20T11:16:32.360Z,26.00
2018-07-20T11:19:08.291Z,26.10
2018-07-20T11:21:42.861Z,26.20
2018-07-20T11:26:44.927Z,26.30
2018-07-20T11:29:19.473Z,26.30
2018-07-20T11:31:50.421Z,26.50
2018-07-20T11:34:21.744Z,26.40
2018-07-20T11:36:53.893Z,26.20
2018-07-20T11:39:25.773Z,26.20
2018-07-20T11:41:58.083Z,26.20
2018-07-20T11:44:33.303Z,26.30
2018-07-20T11:47:06.658Z,26.20
2018-07-20T11:49:39.165Z,26.10
2018-07-20T11:52:12.439Z,26.30
2018-07-20T11:54:44.559Z,26.50
2018-07-20T11:57:17.627Z,26.70
2018-07-20T11:59:52.150Z,26.80
2018-07-20T12:02:27.272Z,26.90
2018-07-20T12:05:00.389Z,27.10
2018-07-20T12:07:31.837Z,27.40
2018-07-20T12:10:03.660Z,27.60
2018-07-20T12:12:35.963Z,27.90
2018-07-20T12:15:13.662Z,28.00
2018-07-20T12:20:16.353Z,27.70
2018-07-20T12:22:50.664Z,27.70
2018-07-20T12:25:21.329Z,27.90
2018-07-20T12:30:22.986Z,28.00
2018-07-20T12:35:25.373Z,28.20
2018-07-20T12:38:02.774Z,28.20
2018-07-20T12:40:34.741Z,28.40
2018-07-20T12:43:10.749Z,28.40
2018-07-20T12:45:44.071Z,28.60
2018-07-20T12:48:15.201Z,28.60
2018-07-20T12:50:47.789Z,28.60
2018-07-20T12:53:22.509Z,28.30
2018-07-20T12:55:51.116Z,28.40
2018-07-20T12:58:19.635Z,28.40
2018-07-20T13:00:48.152Z,28.50
2018-07-20T13:03:16.685Z,28.40
2018-07-20T13:05:45.159Z,28.50
2018-07-20T13:08:13.681Z,28.60
2018-07-20T13:10:42.227Z,28.60
2018-07-20T13:13:11.005Z,28.70
2018-07-20T13:15:39.505Z,29.00
2018-07-20T13:18:08.115Z,29.20
2018-07-20T13:20:36.560Z,29.50
2018-07-20T13:23:05.103Z,29.60
2018-07-20T13:28:01.796Z,29.90
2018-07-20T13:30:30.269Z,29.90
2018-07-20T13:32:58.779Z,29.90
2018-07-20T13:35:27.335Z,29.80
2018-07-20T13:37:55.855Z,29.90
2018-07-20T13:40:24.401Z,29.90
2018-07-20T13:42:53.049Z,30.00
2018-07-20T13:47:49.820Z,29.90
2018-07-20T13:50:18.341Z,29.90
2018-07-20T13:52:46.969Z,29.80
2018-07-20T13:55:15.388Z,29.90
2018-07-20T13:57:43.861Z,30.20
2018-07-20T14:00:12.392Z,30.40
2018-07-20T14:02:40.868Z,30.40
2018-07-20T14:05:09.408Z,30.30
2018-07-20T14:07:37.888Z,30.30
2018-07-20T14:10:06.444Z,30.50
2018-07-20T14:15:03.215Z,30.90
2018-07-20T14:19:59.906Z,30.40
2018-07-20T14:22:28.491Z,30.40
2018-07-20T14:24:57.025Z,30.60
2018-07-20T14:27:25.504Z,30.60
2018-07-20T14:29:54.030Z,30.80
2018-07-20T14:32:22.509Z,31.10
2018-07-20T14:34:51.015Z,31.30
2018-07-20T14:37:19.634Z,31.70
2018-07-20T14:39:48.268Z,32.10
2018-07-20T14:42:16.812Z,32.20
2018-07-20T14:44:45.308Z,32.10
2018-07-20T14:47:13.894Z,32.10
2018-07-20T14:49:42.377Z,32.10
2018-07-20T14:54:39.060Z,32.00
2018-07-20T14:57:07.567Z,31.60
2018-07-20T14:59:36.093Z,31.30
2018-07-20T15:02:04.673Z,31.40
2018-07-20T15:04:33.185Z,31.40
2018-07-20T15:07:01.719Z,31.40
2018-07-20T15:09:30.208Z,31.60
2018-07-20T15:11:58.747Z,31.50
2018-07-20T15:14:27.258Z,31.80
2018-07-20T15:16:55.785Z,31.90
2018-07-20T15:19:24.260Z,32.20
2018-07-20T15:21:52.807Z,32.40
2018-07-20T15:24:21.287Z,32.40
2018-07-20T15:26:49.768Z,32.40
2018-07-20T15:29:18.278Z,32.10
2018-07-20T15:34:14.996Z,31.50
2018-07-20T15:36:43.538Z,31.60
2018-07-20T15:39:12.460Z,31.90
2018-07-20T15:41:41.060Z,32.40
2018-07-20T15:44:09.540Z,32.60
2018-07-20T15:46:38.205Z,32.40
2018-07-20T15:49:06.710Z,32.00
2018-07-20T15:53:35.053Z,31.30
2018-07-20T15:54:03.783Z,30.90
2018-07-20T15:56:33.841Z,30.90
2018-07-20T15:59:02.403Z,30.80
2018-07-20T16:01:30.899Z,30.50
2018-07-20T16:06:27.648Z,30.60
2018-07-20T16:08:56.109Z,30.60
2018-07-20T16:11:24.617Z,30.50
2018-07-20T16:13:53.305Z,30.50
2018-07-20T16:16:21.823Z,30.60
2018-07-20T16:18:50.338Z,30.90
2018-07-20T16:21:18.844Z,30.80
2018-07-20T16:23:47.384Z,30.50
2018-07-20T16:26:16.017Z,30.00
2018-07-20T16:28:44.501Z,29.00
2018-07-20T16:31:13.189Z,28.10
2018-07-20T16:33:41.692Z,27.40
2018-07-20T16:41:07.083Z,26.10
2018-07-20T16:43:35.604Z,26.00
2018-07-20T16:46:04.149Z,25.80
2018-07-20T16:48:32.725Z,25.80
2018-07-20T16:51:01.201Z,25.80
2018-07-20T16:53:29.724Z,25.90
2018-07-20T16:58:47.029Z,26.80
2018-07-20T17:03:50.544Z,26.90
2018-07-20T17:06:20.490Z,27.00
2018-07-20T17:08:52.326Z,27.10
2018-07-20T17:11:24.840Z,27.30
2018-07-20T17:16:28.010Z,27.60
2018-07-20T17:21:32.100Z,27.60
2018-07-20T17:24:04.853Z,27.40
2018-07-20T17:29:08.686Z,26.70
2018-07-20T17:31:40.674Z,26.40
2018-07-20T17:34:12.285Z,26.20
2018-07-20T17:39:14.225Z,25.80
2018-07-20T17:41:44.817Z,25.70
2018-07-20T17:44:20.890Z,25.70
2018-07-20T17:46:52.873Z,25.60
2018-07-20T17:49:24.426Z,25.50
2018-07-20T17:51:56.435Z,25.50
2018-07-20T17:54:30.329Z,25.30
2018-07-20T18:02:39.739Z,24.80
2018-07-20T18:05:27.331Z,24.60
2018-07-20T18:14:01.085Z,24.20
2018-07-20T18:16:39.268Z,24.20
2018-07-20T18:19:36.774Z,24.10
2018-07-20T18:24:56.392Z,24.20
2018-07-20T18:27:31.481Z,24.20
2018-07-20T18:30:13.898Z,24.20
2018-07-20T18:33:00.168Z,24.10
2018-07-20T18:38:32.019Z,23.90
2018-07-20T18:46:29.192Z,23.50
2018-07-20T18:49:08.794Z,23.40
2018-07-20T18:54:41.329Z,22.70
2018-07-20T18:57:24.681Z,22.30
2018-07-20T19:05:35.853Z,21.60
2018-07-20T19:08:15.256Z,21.40
2018-07-20T19:10:50.576Z,21.30
2018-07-20T19:13:45.980Z,21.20
2018-07-20T19:16:26.138Z,21.00
2018-07-20T19:19:06.771Z,20.90
2018-07-20T19:21:48.316Z,20.70
2018-07-20T19:24:26.340Z,20.60
2018-07-20T19:29:44.130Z,20.40
2018-07-20T19:35:13.866Z,20.20
2018-07-20T19:37:52.772Z,20.10
2018-07-20T19:40:36.886Z,20.00
2018-07-20T19:43:15.917Z,19.90
2018-07-20T19:46:03.698Z,19.80
2018-07-20T19:48:38.330Z,19.70
2018-07-20T19:51:13.310Z,19.60
2018-07-20T19:53:50.717Z,19.50
2018-07-20T19:56:22.606Z,19.50
2018-07-20T20:01:30.119Z,19.30
2018-07-20T20:04:03.815Z,19.30
2018-07-20T20:06:39.057Z,19.20
2018-07-20T20:09:09.963Z,19.10
2018-07-20T20:11:39.736Z,19.10
2018-07-20T20:14:08.681Z,19.00
2018-07-20T20:16:37.781Z,18.90
2018-07-20T20:19:06.702Z,18.90
2018-07-20T20:21:36.761Z,18.80
2018-07-20T20:24:05.781Z,18.80
2018-07-20T20:26:34.377Z,18.70
2018-07-20T20:29:03.040Z,18.70
2018-07-20T20:31:31.682Z,18.70
2018-07-20T20:34:00.572Z,18.60
2018-07-20T20:36:29.244Z,18.60
2018-07-20T20:38:57.846Z,18.60
2018-07-20T20:41:26.682Z,18.60
2018-07-20T20:43:55.363Z,18.50
2018-07-20T20:46:24.696Z,18.50
2018-07-20T20:48:53.537Z,18.40
2018-07-20T20:51:22.161Z,18.40
2018-07-20T20:53:51.035Z,18.40
2018-07-20T20:56:19.669Z,18.40
2018-07-20T20:58:48.362Z,18.30
2018-07-20T21:01:17.081Z,18.30
2018-07-20T21:06:14.316Z,18.30
2018-07-20T21:11:12.939Z,18.30
2018-07-20T21:13:41.619Z,18.30
2018-07-20T21:16:10.205Z,18.20
2018-07-20T21:18:39.104Z,18.20
2018-07-20T21:21:07.762Z,18.20
2018-07-20T21:23:36.353Z,18.30
2018-07-20T21:28:33.297Z,18.30
2018-07-20T21:31:01.838Z,18.40
2018-07-20T21:33:30.439Z,18.40
2018-07-20T21:35:59.001Z,18.40
2018-07-20T21:40:55.841Z,18.50
2018-07-20T21:43:24.388Z,18.50
2018-07-20T21:45:52.969Z,18.50
2018-07-20T21:48:21.542Z,18.50
2018-07-20T21:50:50.212Z,18.50
2018-07-20T21:55:47.002Z,18.50
2018-07-20T21:58:16.243Z,18.40
2018-07-20T22:00:44.816Z,18.40
2018-07-20T22:03:13.410Z,18.40
2018-07-20T22:05:42.124Z,18.30
2018-07-20T22:08:10.901Z,18.30
2018-07-20T22:13:07.957Z,18.20
2018-07-20T22:15:36.544Z,18.20
2018-07-20T22:18:05.383Z,18.10
2018-07-20T22:20:36.265Z,18.10
2018-07-20T22:23:04.822Z,18.00
2018-07-20T22:25:33.427Z,18.00
2018-07-20T22:28:02.029Z,17.90
2018-07-20T22:30:30.949Z,17.90
2018-07-20T22:32:59.502Z,17.90
2018-07-20T22:35:28.106Z,17.90
2018-07-20T22:37:57.861Z,17.90
2018-07-20T22:40:26.493Z,17.90
2018-07-20T22:42:56.027Z,18.00
2018-07-20T22:45:24.982Z,18.00
2018-07-20T22:47:53.585Z,18.00
2018-07-20T22:52:50.387Z,18.00
2018-07-20T22:55:18.981Z,18.00
2018-07-20T22:57:47.541Z,18.00
2018-07-20T23:00:16.108Z,17.90
2018-07-20T23:02:44.659Z,17.90
2018-07-20T23:05:13.228Z,17.90
2018-07-20T23:07:41.797Z,17.90
2018-07-20T23:10:10.387Z,17.90
2018-07-20T23:12:38.917Z,17.90
2018-07-20T23:15:07.509Z,17.90
2018-07-20T23:17:36.058Z,17.90
2018-07-20T23:20:04.813Z,17.90
2018-07-20T23:22:33.373Z,17.80
2018-07-20T23:25:01.934Z,17.80
2018-07-20T23:27:30.523Z,17.80
2018-07-20T23:29:59.123Z,17.80
2018-07-20T23:32:27.738Z,17.70
2018-07-20T23:34:56.309Z,17.70
2018-07-20T23:37:24.894Z,17.70
2018-07-20T23:39:53.429Z,17.70
2018-07-20T23:42:22.026Z,17.60
2018-07-20T23:44:50.566Z,17.60
2018-07-20T23:47:19.176Z,17.60
2018-07-20T23:49:47.749Z,17.50
2018-07-20T23:52:16.319Z,17.50
2018-07-20T23:54:45.306Z,17.50
2018-07-20T23:57:13.955Z,17.50
2018-07-20T23:59:42.506Z,17.50
